createdAt,value
2018-04-07T00:01:10.750Z,98072.54
2018-04-07T00:03:39.006Z,98071.25
2018-04-07T00:06:08.029Z,98065.77
2018-04-07T00:08:36.290Z,98069.33
2018-04-07T00:11:04.583Z,98060.62
2018-04-07T00:13:32.829Z,98062.06
2018-04-07T00:16:01.848Z,98057.89
2018-04-07T00:18:30.104Z,98054.31
2018-04-07T00:20:58.389Z,98052.23
2018-04-07T00:23:26.634Z,98050.58
2018-04-07T00:25:55.664Z,98057.00
2018-04-07T00:28:23.941Z,98047.26
2018-04-07T00:30:52.198Z,98044.89
2018-04-07T00:33:21.239Z,98038.22
2018-04-07T00:35:49.521Z,98038.97
2018-04-07T00:38:17.777Z,98036.94
2018-04-07T00:40:46.060Z,98039.77
2018-04-07T00:43:14.317Z,98034.34
2018-04-07T00:45:42.578Z,98034.08
2018-04-07T00:48:10.857Z,98040.14
2018-04-07T00:50:39.109Z,98033.73
2018-04-07T00:53:08.152Z,98028.05
2018-04-07T00:55:36.404Z,98029.72
2018-04-07T00:58:04.681Z,98030.08
2018-04-07T01:00:32.983Z,98018.11
2018-04-07T01:03:01.231Z,98016.94
2018-04-07T01:05:29.540Z,98015.30
2018-04-07T01:07:57.793Z,98011.86
2018-04-07T01:10:26.068Z,98011.13
2018-04-07T01:12:54.350Z,98013.03
2018-04-07T01:15:23.436Z,98008.96
2018-04-07T01:17:51.708Z,98010.16
2018-04-07T01:20:19.965Z,98013.84
2018-04-07T01:22:48.760Z,98014.73
2018-04-07T01:25:17.769Z,98010.41
2018-04-07T01:27:46.049Z,98016.00
2018-04-07T01:30:14.308Z,98013.30
2018-04-07T01:32:42.597Z,98004.92
2018-04-07T01:35:10.844Z,98005.20
2018-04-07T01:37:39.866Z,98007.23
2018-04-07T01:40:08.138Z,98008.48
2018-04-07T01:42:36.399Z,98004.83
2018-04-07T01:45:05.436Z,97996.37
2018-04-07T01:47:33.700Z,98000.19
2018-04-07T01:50:01.947Z,97995.56
2018-04-07T01:52:30.224Z,98000.02
2018-04-07T01:54:59.248Z,97996.95
2018-04-07T01:57:27.530Z,98002.59
2018-04-07T01:59:55.800Z,97988.95
2018-04-07T02:02:24.060Z,97991.45
2018-04-07T02:04:52.336Z,97986.40
2018-04-07T02:07:20.588Z,97990.58
2018-04-07T02:09:49.637Z,97982.39
2018-04-07T02:12:17.886Z,97986.24
2018-04-07T02:14:46.268Z,97987.63
2018-04-07T02:17:14.536Z,97982.77
2018-04-07T02:19:42.798Z,97982.41
2018-04-07T02:22:11.836Z,97980.98
2018-04-07T02:24:40.103Z,97976.71
2018-04-07T02:27:08.356Z,97975.83
2018-04-07T02:29:36.626Z,97971.23
2018-04-07T02:32:04.881Z,97970.34
2018-04-07T02:34:33.982Z,97966.23
2018-04-07T02:37:03.002Z,97965.28
2018-04-07T02:39:31.260Z,97967.95
2018-04-07T02:41:59.541Z,97964.95
2018-04-07T02:44:27.807Z,97972.23
2018-04-07T02:46:56.849Z,97974.47
2018-04-07T02:49:25.111Z,97973.90
2018-04-07T02:51:53.369Z,97976.44
2018-04-07T02:54:21.643Z,97979.45
2018-04-07T02:56:49.927Z,97971.88
2018-04-07T02:59:19.217Z,97973.11
2018-04-07T03:01:47.478Z,97972.38
2018-04-07T03:04:16.511Z,97971.92
2018-04-07T03:06:44.785Z,97980.90
2018-04-07T03:09:13.053Z,97970.19
2018-04-07T03:11:41.316Z,97976.10
2018-04-07T03:14:09.563Z,97973.91
2018-04-07T03:16:38.618Z,97974.44
2018-04-07T03:19:06.888Z,97975.67
2018-04-07T03:21:35.152Z,97970.84
2018-04-07T03:24:03.437Z,97966.97
2018-04-07T03:26:31.717Z,97971.25
2018-04-07T03:28:59.972Z,97969.64
2018-04-07T03:31:28.249Z,97973.89
2018-04-07T03:33:56.521Z,97966.91
2018-04-07T03:36:24.793Z,97961.13
2018-04-07T03:38:53.064Z,97970.08
2018-04-07T03:41:21.348Z,97959.61
2018-04-07T03:43:49.612Z,97958.07
2018-04-07T03:46:18.632Z,97967.80
2018-04-07T03:48:46.903Z,97963.91
2018-04-07T03:51:15.160Z,97966.61
2018-04-07T03:53:44.205Z,97963.56
2018-04-07T03:56:12.461Z,97963.05
2018-04-07T03:58:40.725Z,97960.19
2018-04-07T04:01:08.997Z,97952.03
2018-04-07T04:03:37.261Z,97958.02
2018-04-07T04:06:05.548Z,97957.39
2018-04-07T04:08:33.804Z,97951.69
2018-04-07T04:11:02.846Z,97947.59
2018-04-07T04:13:31.118Z,97955.91
2018-04-07T04:15:59.389Z,97959.25
2018-04-07T04:18:27.671Z,97957.61
2018-04-07T04:20:55.925Z,97958.95
2018-04-07T04:23:24.225Z,97961.16
2018-04-07T04:25:53.218Z,97963.77
2018-04-07T04:28:21.466Z,97963.45
2018-04-07T04:30:49.757Z,97963.80
2018-04-07T04:33:18.008Z,97964.43
2018-04-07T04:35:46.264Z,97962.86
2018-04-07T04:38:15.305Z,97966.92
2018-04-07T04:40:43.570Z,97964.08
2018-04-07T04:43:11.839Z,97970.55
2018-04-07T04:45:40.108Z,97959.92
2018-04-07T04:48:08.378Z,97961.45
2018-04-07T04:50:37.413Z,97958.10
2018-04-07T04:53:05.717Z,97951.70
2018-04-07T04:55:34.070Z,97954.09
2018-04-07T04:58:02.353Z,97954.23
2018-04-07T05:00:30.712Z,97954.88
2018-04-07T05:02:58.981Z,97951.95
2018-04-07T05:05:28.988Z,97956.09
2018-04-07T05:07:57.289Z,97955.70
2018-04-07T05:10:25.543Z,97959.27
2018-04-07T05:12:53.800Z,97963.61
2018-04-07T05:15:22.833Z,97960.23
2018-04-07T05:17:51.099Z,97963.16
2018-04-07T05:20:19.390Z,97959.78
2018-04-07T05:22:47.646Z,97954.03
2018-04-07T05:25:15.897Z,97950.73
2018-04-07T05:27:44.933Z,97954.13
2018-04-07T05:30:13.191Z,97955.71
2018-04-07T05:32:41.468Z,97961.56
2018-04-07T05:35:09.723Z,97961.30
2018-04-07T05:37:37.981Z,97970.08
2018-04-07T05:40:07.018Z,97957.86
2018-04-07T05:42:35.269Z,97965.66
2018-04-07T05:45:03.540Z,97968.27
2018-04-07T05:47:32.560Z,97965.48
2018-04-07T05:50:00.836Z,97963.76
2018-04-07T05:52:29.116Z,97962.66
2018-04-07T05:54:57.424Z,97957.67
2018-04-07T05:57:25.696Z,97960.52
2018-04-07T05:59:53.966Z,97951.09
2018-04-07T06:02:22.216Z,97950.61
2018-04-07T06:04:50.480Z,97959.28
2018-04-07T06:07:18.745Z,97960.13
2018-04-07T06:09:47.769Z,97959.66
2018-04-07T06:12:16.057Z,97950.66
2018-04-07T06:14:44.304Z,97954.83
2018-04-07T06:17:12.583Z,97960.19
2018-04-07T06:19:40.848Z,97962.08
2018-04-07T06:22:09.127Z,97956.61
2018-04-07T06:24:37.380Z,97946.68
2018-04-07T06:27:06.418Z,97948.56
2018-04-07T06:29:34.692Z,97954.78
2018-04-07T06:32:02.945Z,97952.30
2018-04-07T06:34:32.012Z,97949.95
2018-04-07T06:37:00.273Z,97950.95
2018-04-07T06:39:28.524Z,97947.45
2018-04-07T06:41:56.810Z,97942.70
2018-04-07T06:44:25.045Z,97945.28
2018-04-07T06:46:53.316Z,97935.85
2018-04-07T06:49:22.331Z,97930.20
2018-04-07T06:51:50.581Z,97933.33
2018-04-07T06:54:18.888Z,97928.87
2018-04-07T06:56:47.144Z,97925.30
2018-04-07T06:59:15.444Z,97927.69
2018-04-07T07:01:43.746Z,97924.55
2018-04-07T07:04:12.043Z,97918.89
2018-04-07T07:06:41.104Z,97918.61
2018-04-07T07:09:09.461Z,97918.73
2018-04-07T07:11:37.751Z,97917.14
2018-04-07T07:14:06.047Z,97919.41
2018-04-07T07:16:34.308Z,97919.06
2018-04-07T07:19:02.623Z,97920.02
2018-04-07T07:21:30.880Z,97918.84
2018-04-07T07:23:59.132Z,97921.03
2018-04-07T07:26:27.417Z,97923.25
2018-04-07T07:28:55.676Z,97915.63
2018-04-07T07:31:23.953Z,97910.59
2018-04-07T07:33:52.216Z,97906.82
2018-04-07T07:36:20.526Z,97902.20
2018-04-07T07:38:48.796Z,97906.48
2018-04-07T07:41:17.061Z,97909.91
2018-04-07T07:43:45.389Z,97901.81
2018-04-07T07:46:13.624Z,97903.58
2018-04-07T07:48:41.895Z,97899.76
2018-04-07T07:51:10.157Z,97900.59
2018-04-07T07:53:38.421Z,97897.98
2018-04-07T07:56:06.692Z,97899.23
2018-04-07T07:58:35.080Z,97897.47
2018-04-07T08:01:03.359Z,97896.13
2018-04-07T08:03:31.613Z,97892.22
2018-04-07T08:06:00.652Z,97892.11
2018-04-07T08:08:28.914Z,97900.55
2018-04-07T08:10:57.184Z,97893.25
2018-04-07T08:13:25.565Z,97889.00
2018-04-07T08:15:53.837Z,97896.05
2018-04-07T08:18:22.160Z,97893.89
2018-04-07T08:20:50.761Z,97887.34
2018-04-07T08:23:18.993Z,97892.38
2018-04-07T08:25:47.269Z,97886.16
2018-04-07T08:28:15.532Z,97897.20
2018-04-07T08:30:43.832Z,97896.28
2018-04-07T08:33:12.120Z,97893.63
2018-04-07T08:35:40.391Z,97890.52
2018-04-07T08:38:08.672Z,97884.00
2018-04-07T08:40:36.944Z,97892.88
2018-04-07T08:43:05.714Z,97889.42
2018-04-07T08:45:34.149Z,97887.09
2018-04-07T08:48:03.181Z,97884.45
2018-04-07T08:50:31.461Z,97889.25
2018-04-07T08:52:59.720Z,97891.23
2018-04-07T08:55:28.012Z,97880.84
2018-04-07T08:57:56.276Z,97879.95
2018-04-07T09:00:24.565Z,97883.99
2018-04-07T09:02:52.856Z,97885.23
2018-04-07T09:05:21.122Z,97888.63
2018-04-07T09:07:49.416Z,97885.50
2018-04-07T09:10:17.691Z,97880.95
2018-04-07T09:12:46.021Z,97880.31
2018-04-07T09:15:14.296Z,97882.41
2018-04-07T09:17:42.572Z,97874.09
2018-04-07T09:20:10.857Z,97880.32
2018-04-07T09:22:39.117Z,97881.50
2018-04-07T09:25:08.140Z,97880.13
2018-04-07T09:27:36.493Z,97869.88
2018-04-07T09:30:04.755Z,97869.13
2018-04-07T09:32:33.896Z,97866.67
2018-04-07T09:35:02.174Z,97859.16
2018-04-07T09:37:30.437Z,97860.38
2018-04-07T09:39:58.712Z,97857.95
2018-04-07T09:42:26.980Z,97854.52
2018-04-07T09:44:55.264Z,97854.27
2018-04-07T09:47:23.541Z,97850.51
2018-04-07T09:49:51.801Z,97846.56
2018-04-07T09:52:20.132Z,97843.31
2018-04-07T09:54:48.397Z,97853.45
2018-04-07T09:57:16.687Z,97848.36
2018-04-07T09:59:44.964Z,97845.09
2018-04-07T10:02:18.905Z,97842.11
2018-04-07T10:04:47.946Z,97833.41
2018-04-07T10:07:16.222Z,97830.33
2018-04-07T10:09:44.530Z,97830.67
2018-04-07T10:12:12.790Z,97828.00
2018-04-07T10:14:41.141Z,97823.70
2018-04-07T10:17:09.400Z,97826.83
2018-04-07T10:19:37.664Z,97826.47
2018-04-07T10:22:05.954Z,97820.55
2018-04-07T10:24:34.223Z,97817.81
2018-04-07T10:27:02.500Z,97817.23
2018-04-07T10:29:30.838Z,97809.73
2018-04-07T10:31:59.114Z,97812.27
2018-04-07T10:34:27.405Z,97804.00
2018-04-07T10:36:56.432Z,97803.47
2018-04-07T10:39:24.702Z,97803.91
2018-04-07T10:41:53.009Z,97804.12
2018-04-07T10:44:21.296Z,97804.95
2018-04-07T10:46:49.580Z,97796.31
2018-04-07T10:49:17.845Z,97792.72
2018-04-07T10:51:46.113Z,97786.66
2018-04-07T10:54:14.391Z,97791.77
2018-04-07T10:56:42.649Z,97785.05
2018-04-07T10:59:10.936Z,97775.91
2018-04-07T11:01:39.202Z,97771.30
2018-04-07T11:04:07.504Z,97770.17
2018-04-07T11:06:35.779Z,97771.86
2018-04-07T11:09:04.068Z,97767.21
2018-04-07T11:11:32.364Z,97771.89
2018-04-07T11:14:00.652Z,97768.30
2018-04-07T11:16:29.772Z,97765.23
2018-04-07T11:18:58.059Z,97758.53
2018-04-07T11:21:26.440Z,97758.70
2018-04-07T11:23:54.753Z,97755.34
2018-04-07T11:26:23.016Z,97754.14
2018-04-07T11:28:51.280Z,97745.22
2018-04-07T11:31:19.564Z,97742.20
2018-04-07T11:33:47.824Z,97739.14
2018-04-07T11:36:16.113Z,97734.30
2018-04-07T11:38:44.367Z,97732.48
2018-04-07T11:41:12.636Z,97735.67
2018-04-07T11:43:40.940Z,97733.66
2018-04-07T11:46:09.210Z,97729.55
2018-04-07T11:48:37.484Z,97714.23
2018-04-07T11:51:05.765Z,97711.89
2018-04-07T11:53:34.035Z,97716.91
2018-04-07T11:56:02.321Z,97711.84
2018-04-07T11:58:30.596Z,97710.52
2018-04-07T12:00:58.877Z,97703.16
2018-04-07T12:03:27.136Z,97702.13
2018-04-07T12:05:55.410Z,97700.06
2018-04-07T12:08:23.746Z,97694.48
2018-04-07T12:10:52.773Z,97696.80
2018-04-07T12:13:21.057Z,97699.77
2018-04-07T12:15:49.324Z,97700.34
2018-04-07T12:18:17.600Z,97697.05
2018-04-07T12:20:45.877Z,97694.06
2018-04-07T12:23:14.145Z,97694.88
2018-04-07T12:25:42.419Z,97696.65
2018-04-07T12:28:10.689Z,97688.14
2018-04-07T12:30:39.000Z,97690.07
2018-04-07T12:33:07.280Z,97689.93
2018-04-07T12:35:35.550Z,97689.86
2018-04-07T12:38:03.840Z,97690.78
2018-04-07T12:40:32.108Z,97690.69
2018-04-07T12:43:00.396Z,97683.47
2018-04-07T12:45:28.666Z,97684.87
2018-04-07T12:47:56.952Z,97680.63
2018-04-07T12:50:25.220Z,97683.79
2018-04-07T12:52:53.494Z,97678.08
2018-04-07T12:55:21.802Z,97678.52
2018-04-07T12:57:50.073Z,97676.61
2018-04-07T13:00:18.356Z,97664.19
2018-04-07T13:02:46.632Z,97657.51
2018-04-07T13:05:14.906Z,97667.58
2018-04-07T13:07:43.184Z,97655.05
2018-04-07T13:10:11.458Z,97657.28
2018-04-07T13:12:39.732Z,97661.13
2018-04-07T13:15:07.997Z,97658.00
2018-04-07T13:17:36.272Z,97649.59
2018-04-07T13:20:04.533Z,97648.75
2018-04-07T13:22:32.804Z,97649.14
2018-04-07T13:25:01.096Z,97652.03
2018-04-07T13:27:29.361Z,97644.95
2018-04-07T13:29:57.661Z,97642.05
2018-04-07T13:32:25.922Z,97632.22
2018-04-07T13:34:54.197Z,97629.70
2018-04-07T13:37:22.482Z,97624.00
2018-04-07T13:39:50.744Z,97622.96
2018-04-07T13:42:19.023Z,97623.73
2018-04-07T13:44:47.299Z,97612.23
2018-04-07T13:47:15.556Z,97611.45
2018-04-07T13:49:43.861Z,97612.87
2018-04-07T13:52:12.121Z,97616.06
2018-04-07T13:54:40.401Z,97608.07
2018-04-07T13:57:08.660Z,97610.38
2018-04-07T13:59:36.929Z,97613.91
2018-04-07T14:02:05.208Z,97614.20
2018-04-07T14:04:33.468Z,97611.92
2018-04-07T14:07:01.761Z,97610.16
2018-04-07T14:09:30.021Z,97603.52
2018-04-07T14:11:58.300Z,97596.72
2018-04-07T14:14:26.559Z,97586.75
2018-04-07T14:16:55.588Z,97589.52
2018-04-07T14:19:23.864Z,97581.69
2018-04-07T14:21:52.132Z,97576.98
2018-04-07T14:24:20.418Z,97575.35
2018-04-07T14:26:48.681Z,97565.98
2018-04-07T14:29:16.945Z,97560.52
2018-04-07T14:31:45.239Z,97556.93
2018-04-07T14:34:13.510Z,97552.33
2018-04-07T14:36:41.794Z,97543.88
2018-04-07T14:39:10.070Z,97558.09
2018-04-07T14:41:38.344Z,97550.83
2018-04-07T14:44:06.621Z,97556.02
2018-04-07T14:46:34.908Z,97550.26
2018-04-07T14:49:03.189Z,97551.16
2018-04-07T14:51:31.456Z,97553.63
2018-04-07T14:53:59.718Z,97557.25
2018-04-07T14:56:28.002Z,97556.70
2018-04-07T14:58:56.272Z,97557.67
2018-04-07T15:01:24.558Z,97559.98
2018-04-07T15:03:52.816Z,97561.18
2018-04-07T15:06:21.085Z,97565.20
2018-04-07T15:08:50.129Z,97548.59
2018-04-07T15:11:18.392Z,97554.27
2018-04-07T15:13:46.677Z,97552.00
2018-04-07T15:16:14.940Z,97547.82
2018-04-07T15:18:43.219Z,97554.28
2018-04-07T15:21:11.505Z,97551.22
2018-04-07T15:23:39.772Z,97549.53
2018-04-07T15:26:08.053Z,97540.56
2018-04-07T15:28:36.365Z,97540.85
2018-04-07T15:31:04.652Z,97536.62
2018-04-07T15:33:33.680Z,97545.18
2018-04-07T15:36:01.968Z,97543.56
2018-04-07T15:38:30.228Z,97547.08
2018-04-07T15:40:58.493Z,97535.62
2018-04-07T15:43:26.773Z,97539.69
2018-04-07T15:45:55.035Z,97533.06
2018-04-07T15:48:24.121Z,97531.58
2018-04-07T15:50:52.371Z,97529.82
2018-04-07T15:53:20.661Z,97527.05
2018-04-07T15:55:48.917Z,97519.60
2018-04-07T15:58:18.137Z,97516.59
2018-04-07T16:00:46.413Z,97513.29
2018-04-07T16:03:14.672Z,97516.70
2018-04-07T16:05:42.947Z,97516.84
2018-04-07T16:08:11.221Z,97515.98
2018-04-07T16:10:39.495Z,97510.38
2018-04-07T16:13:07.772Z,97508.91
2018-04-07T16:15:36.033Z,97498.16
2018-04-07T16:18:04.318Z,97508.09
2018-04-07T16:20:32.581Z,97503.24
2018-04-07T16:23:00.863Z,97501.80
2018-04-07T16:25:29.124Z,97499.96
2018-04-07T16:27:57.393Z,97494.09
2018-04-07T16:30:25.677Z,97494.68
2018-04-07T16:32:54.666Z,97489.86
2018-04-07T16:35:23.053Z,97482.44
2018-04-07T16:37:52.070Z,97490.05
2018-04-07T16:40:20.345Z,97478.55
2018-04-07T16:42:48.631Z,97477.39
2018-04-07T16:45:17.002Z,97481.52
2018-04-07T16:47:45.960Z,97488.44
2018-04-07T16:50:14.222Z,97483.48
2018-04-07T16:52:42.498Z,97486.44
2018-04-07T16:55:10.770Z,97486.21
2018-04-07T16:57:39.049Z,97484.56
2018-04-07T17:00:07.323Z,97494.16
2018-04-07T17:02:35.606Z,97482.66
2018-04-07T17:05:03.865Z,97484.15
2018-04-07T17:07:32.184Z,97483.89
2018-04-07T17:10:00.457Z,97486.85
2018-04-07T17:12:28.742Z,97486.37
2018-04-07T17:14:57.005Z,97481.36
2018-04-07T17:17:25.287Z,97479.23
2018-04-07T17:19:53.557Z,97477.53
2018-04-07T17:22:21.836Z,97478.86
2018-04-07T17:24:50.104Z,97489.34
2018-04-07T17:27:18.419Z,97488.72
2018-04-07T17:29:46.704Z,97482.91
2018-04-07T17:32:14.972Z,97488.55
2018-04-07T17:34:43.246Z,97490.73
2018-04-07T17:37:11.525Z,97495.13
2018-04-07T17:39:39.805Z,97491.24
2018-04-07T17:42:08.077Z,97502.75
2018-04-07T17:44:36.371Z,97501.13
2018-04-07T17:47:05.409Z,97501.11
2018-04-07T17:49:43.607Z,97509.69
2018-04-07T17:52:01.952Z,97497.34
2018-04-07T17:54:30.233Z,97503.58
2018-04-07T17:56:58.528Z,97504.30
2018-04-07T17:59:26.788Z,97514.84
2018-04-07T18:01:55.050Z,97512.31
2018-04-07T18:04:23.329Z,97509.58
2018-04-07T18:06:51.621Z,97515.25
2018-04-07T18:09:19.889Z,97510.21
2018-04-07T18:11:48.150Z,97509.61
2018-04-07T18:14:16.434Z,97509.89
2018-04-07T18:16:44.717Z,97509.92
2018-04-07T18:19:12.992Z,97514.19
2018-04-07T18:21:41.279Z,97516.55
2018-04-07T18:24:09.590Z,97516.39
2018-04-07T18:26:37.878Z,97521.33
2018-04-07T18:29:06.143Z,97520.34
2018-04-07T18:31:35.944Z,97523.94
2018-04-07T18:34:04.277Z,97529.13
2018-04-07T18:36:32.568Z,97527.75
2018-04-07T18:39:00.824Z,97529.39
2018-04-07T18:41:29.136Z,97529.52
2018-04-07T18:43:57.426Z,97534.05
2018-04-07T18:46:25.688Z,97536.91
2018-04-07T18:48:53.988Z,97543.15
2018-04-07T18:51:22.254Z,97550.17
2018-04-07T18:53:50.586Z,97547.77
2018-04-07T18:56:19.038Z,97546.44
2018-04-07T18:58:47.373Z,97558.50
2018-04-07T19:01:15.686Z,97565.62
2018-04-07T19:03:43.980Z,97557.55
2018-04-07T19:06:13.037Z,97564.52
2018-04-07T19:08:41.331Z,97569.25
2018-04-07T19:11:09.910Z,97565.80
2018-04-07T19:13:39.017Z,97564.94
2018-04-07T19:16:08.233Z,97567.52
2018-04-07T19:18:37.473Z,97565.23
2018-04-07T19:21:07.474Z,97565.00
2018-04-07T19:23:37.570Z,97561.42
2018-04-07T19:26:06.823Z,97562.56
2018-04-07T19:28:36.053Z,97570.06
2018-04-07T19:31:05.494Z,97571.80
2018-04-07T19:33:35.481Z,97569.82
2018-04-07T19:36:05.924Z,97565.38
2018-04-07T19:38:35.238Z,97567.29
2018-04-07T19:41:06.712Z,97575.65
2018-04-07T19:43:35.850Z,97575.23
2018-04-07T19:46:06.109Z,97576.61
2018-04-07T19:48:36.118Z,97574.66
2018-04-07T19:51:06.170Z,97581.91
2018-04-07T19:53:35.458Z,97584.84
2018-04-07T19:56:04.754Z,97582.70
2018-04-07T19:58:34.108Z,97583.75
2018-04-07T20:01:03.316Z,97586.41
2018-04-07T20:03:32.840Z,97589.67
2018-04-07T20:06:02.846Z,97590.33
2018-04-07T20:08:32.257Z,97587.47
2018-04-07T20:11:02.224Z,97589.05
2018-04-07T20:13:31.625Z,97584.17
2018-04-07T20:16:00.876Z,97583.91
2018-04-07T20:18:30.085Z,97585.48
2018-04-07T20:21:00.169Z,97584.46
2018-04-07T20:23:29.462Z,97580.29
2018-04-07T20:25:58.892Z,97578.02
2018-04-07T20:28:28.993Z,97575.36
2018-04-07T20:30:58.389Z,97575.39
2018-04-07T20:33:27.840Z,97575.50
2018-04-07T20:35:57.106Z,97578.17
2018-04-07T20:38:26.434Z,97585.03
2018-04-07T20:40:58.530Z,97578.20
2018-04-07T20:43:27.750Z,97581.00
2018-04-07T20:45:57.082Z,97587.39
2018-04-07T20:48:27.118Z,97590.92
2018-04-07T20:50:57.178Z,97583.66
2018-04-07T20:53:26.450Z,97585.11
2018-04-07T20:55:55.742Z,97584.75
2018-04-07T20:58:25.067Z,97588.46
2018-04-07T21:00:54.462Z,97587.56
2018-04-07T21:03:23.755Z,97581.20
2018-04-07T21:05:53.150Z,97581.30
2018-04-07T21:08:22.511Z,97585.44
2018-04-07T21:10:51.825Z,97586.02
2018-04-07T21:13:21.048Z,97588.58
2018-04-07T21:15:50.142Z,97582.24
2018-04-07T21:18:20.104Z,97585.77
2018-04-07T21:20:49.279Z,97583.88
2018-04-07T21:23:18.648Z,97579.08
2018-04-07T21:25:48.693Z,97579.09
2018-04-07T21:28:18.173Z,97584.04
2018-04-07T21:30:47.063Z,97584.82
2018-04-07T21:33:15.706Z,97576.59
2018-04-07T21:35:44.352Z,97578.38
2018-04-07T21:38:12.821Z,97580.16
2018-04-07T21:40:41.161Z,97573.52
2018-04-07T21:43:10.263Z,97577.17
2018-04-07T21:45:38.568Z,97579.33
2018-04-07T21:48:06.843Z,97578.52
2018-04-07T21:50:35.135Z,97578.30
2018-04-07T21:53:03.408Z,97575.89
2018-04-07T21:55:31.701Z,97577.44
2018-04-07T21:57:59.972Z,97581.59
2018-04-07T22:00:28.268Z,97575.54
2018-04-07T22:02:57.388Z,97573.78
2018-04-07T22:05:26.424Z,97572.09
2018-04-07T22:07:54.761Z,97570.86
2018-04-07T22:10:22.992Z,97574.84
2018-04-07T22:12:51.293Z,97579.05
2018-04-07T22:15:19.570Z,97578.91
2018-04-07T22:17:47.832Z,97577.08
2018-04-07T22:20:16.108Z,97574.90
2018-04-07T22:22:44.380Z,97576.19
2018-04-07T22:25:12.665Z,97578.78
2018-04-07T22:27:40.937Z,97577.08
2018-04-07T22:30:09.193Z,97576.30
2018-04-07T22:32:37.521Z,97573.42
2018-04-07T22:35:06.601Z,97573.09
2018-04-07T22:37:34.906Z,97573.48
2018-04-07T22:40:03.168Z,97572.52
2018-04-07T22:42:32.217Z,97569.27
2018-04-07T22:45:00.483Z,97573.17
2018-04-07T22:47:28.750Z,97575.38
2018-04-07T22:49:57.038Z,97570.99
2018-04-07T22:52:25.303Z,97569.69
2018-04-07T22:54:53.585Z,97573.89
2018-04-07T22:57:21.841Z,97570.08
2018-04-07T22:59:50.084Z,97562.91
2018-04-07T23:02:19.128Z,97573.59
2018-04-07T23:04:47.394Z,97575.34
2018-04-07T23:07:15.671Z,97576.94
2018-04-07T23:09:43.944Z,97568.74
2018-04-07T23:12:12.205Z,97568.73
2018-04-07T23:14:40.514Z,97569.58
2018-04-07T23:17:08.751Z,97568.84
2018-04-07T23:19:37.789Z,97573.61
2018-04-07T23:22:06.828Z,97575.76
2018-04-07T23:24:35.856Z,97573.35
2018-04-07T23:27:04.131Z,97572.78
2018-04-07T23:29:32.388Z,97570.88
2018-04-07T23:32:00.672Z,97564.94
2018-04-07T23:34:28.956Z,97562.28
2018-04-07T23:36:57.229Z,97560.01
2018-04-07T23:39:25.591Z,97558.65
2018-04-07T23:41:53.843Z,97558.53
2018-04-07T23:44:22.126Z,97551.70
2018-04-07T23:46:50.372Z,97553.78
2018-04-07T23:49:18.631Z,97552.91
2018-04-07T23:51:46.904Z,97551.62
2018-04-07T23:54:15.177Z,97546.47
2018-04-07T23:56:43.456Z,97545.74
2018-04-07T23:59:11.721Z,97544.52
